createdAt,value
2022-12-16T00:01:43.209Z,32.30
2022-12-16T00:04:12.342Z,32.20
2022-12-16T00:06:42.848Z,34.87
2022-12-16T00:09:11.696Z,32.73
2022-12-16T00:11:40.606Z,32.00
2022-12-16T00:14:09.576Z,29.67
2022-12-16T00:16:38.557Z,28.73
2022-12-16T00:19:07.605Z,30.17
2022-12-16T00:21:36.907Z,30.33
2022-12-16T00:24:07.246Z,31.37
2022-12-16T00:26:36.100Z,33.77
2022-12-16T00:29:06.294Z,29.67
2022-12-16T00:31:35.340Z,30.77
2022-12-16T00:34:04.392Z,32.07
2022-12-16T00:36:33.540Z,31.57
2022-12-16T00:39:02.698Z,34.80
2022-12-16T00:41:32.983Z,32.67
2022-12-16T00:44:02.234Z,34.27
2022-12-16T00:46:31.131Z,32.03
2022-12-16T00:49:00.478Z,30.07
2022-12-16T00:51:30.191Z,30.97
2022-12-16T00:53:59.312Z,29.40
2022-12-16T00:56:28.666Z,29.07
2022-12-16T00:58:58.946Z,27.63
2022-12-16T01:01:27.896Z,28.50
2022-12-16T01:03:57.978Z,27.63
2022-12-16T01:06:27.124Z,28.17
2022-12-16T01:08:56.094Z,27.43
2022-12-16T01:11:25.067Z,26.97
2022-12-16T01:13:55.145Z,25.63
2022-12-16T01:16:25.539Z,26.43
2022-12-16T01:18:56.281Z,25.33
2022-12-16T01:21:25.109Z,25.63
2022-12-16T01:23:55.053Z,24.00
2022-12-16T01:26:24.477Z,24.73
2022-12-16T01:28:53.379Z,25.03
2022-12-16T01:31:25.690Z,23.93
2022-12-16T01:33:54.854Z,25.50
2022-12-16T01:36:24.399Z,24.67
2022-12-16T01:38:53.370Z,22.53
2022-12-16T01:41:23.244Z,23.10
2022-12-16T01:43:52.395Z,22.23
2022-12-16T01:46:25.812Z,23.17
2022-12-16T01:48:58.933Z,21.53
2022-12-16T01:51:32.546Z,22.60
2022-12-16T01:54:06.807Z,22.13
2022-12-16T01:56:39.213Z,22.13
2022-12-16T01:59:08.853Z,20.90
2022-12-16T02:01:39.393Z,20.93
2022-12-16T02:04:08.566Z,20.00
2022-12-16T02:06:37.698Z,19.60
2022-12-16T02:09:11.089Z,19.20
2022-12-16T02:11:58.301Z,18.83
2022-12-16T02:14:55.449Z,17.60
2022-12-16T02:17:35.101Z,16.27
2022-12-16T02:20:47.159Z,18.03
2022-12-16T02:23:36.781Z,17.60
2022-12-16T02:26:41.259Z,18.27
2022-12-16T02:29:33.524Z,16.60
2022-12-16T02:32:12.315Z,17.27
2022-12-16T02:34:51.078Z,15.67
2022-12-16T02:37:32.331Z,15.70
2022-12-16T02:40:03.733Z,14.87
2022-12-16T02:42:37.140Z,15.90
2022-12-16T02:45:14.719Z,15.30
2022-12-16T02:47:45.410Z,14.97
2022-12-16T02:50:21.777Z,14.67
2022-12-16T02:52:52.154Z,15.03
2022-12-16T02:55:23.211Z,14.17
2022-12-16T02:58:08.462Z,15.10
2022-12-16T03:00:48.582Z,14.23
2022-12-16T03:03:24.432Z,14.70
2022-12-16T03:05:55.617Z,13.80
2022-12-16T03:08:29.015Z,13.67
2022-12-16T03:11:01.063Z,14.13
2022-12-16T03:13:34.344Z,13.17
2022-12-16T03:16:06.421Z,14.37
2022-12-16T03:18:39.235Z,14.83
2022-12-16T03:21:10.361Z,13.80
2022-12-16T03:23:44.329Z,13.90
2022-12-16T03:26:22.915Z,14.37
2022-12-16T03:28:57.216Z,13.47
2022-12-16T03:31:33.275Z,13.43
2022-12-16T03:34:10.676Z,13.67
2022-12-16T03:36:42.507Z,14.00
2022-12-16T03:39:12.991Z,13.27
2022-12-16T03:41:44.592Z,14.13
2022-12-16T03:44:14.089Z,13.33
2022-12-16T03:46:43.157Z,13.00
2022-12-16T03:49:13.517Z,13.40
2022-12-16T03:51:42.459Z,13.07
2022-12-16T03:54:11.517Z,13.67
2022-12-16T03:56:40.502Z,12.20
2022-12-16T03:59:09.553Z,13.37
2022-12-16T04:01:38.721Z,13.13
2022-12-16T04:04:08.127Z,12.00
2022-12-16T04:06:38.515Z,12.73
2022-12-16T04:09:07.458Z,12.47
2022-12-16T04:11:54.007Z,13.63
2022-12-16T04:14:41.309Z,13.47
2022-12-16T04:17:31.180Z,12.73
2022-12-16T04:20:17.415Z,12.40
2022-12-16T04:23:05.402Z,12.80
2022-12-16T04:25:36.875Z,13.53
2022-12-16T04:28:05.879Z,12.97
2022-12-16T04:30:35.588Z,13.43
2022-12-16T04:33:26.281Z,13.23
2022-12-16T04:36:12.828Z,12.93
2022-12-16T04:39:01.114Z,14.47
2022-12-16T04:41:47.875Z,13.13
2022-12-16T04:44:33.966Z,14.57
2022-12-16T04:47:20.488Z,14.60
2022-12-16T04:50:06.995Z,13.90
2022-12-16T04:52:53.595Z,15.33
2022-12-16T04:55:41.424Z,15.00
2022-12-16T04:58:28.026Z,16.60
2022-12-16T05:01:14.337Z,14.97
2022-12-16T05:04:01.635Z,15.90
2022-12-16T05:06:48.614Z,16.23
2022-12-16T05:09:34.810Z,16.20
2022-12-16T05:12:23.362Z,16.17
2022-12-16T05:15:09.669Z,15.50
2022-12-16T05:17:55.779Z,16.00
2022-12-16T05:20:42.501Z,16.67
2022-12-16T05:23:29.449Z,15.90
2022-12-16T05:26:16.189Z,16.03
2022-12-16T05:29:04.129Z,15.63
2022-12-16T05:31:50.777Z,15.50
2022-12-16T05:34:37.336Z,16.10
2022-12-16T05:37:24.629Z,15.97
2022-12-16T05:40:10.873Z,15.10
2022-12-16T05:42:57.251Z,16.13
2022-12-16T05:45:45.890Z,17.40
2022-12-16T05:48:32.323Z,16.73
2022-12-16T05:51:19.708Z,17.23
2022-12-16T05:54:06.995Z,17.13
2022-12-16T05:56:53.508Z,18.40
2022-12-16T05:59:40.012Z,18.27
2022-12-16T06:02:30.645Z,19.30
2022-12-16T06:05:31.662Z,18.73
2022-12-16T06:08:17.939Z,19.03
2022-12-16T06:11:04.649Z,19.60
2022-12-16T06:13:50.890Z,20.30
2022-12-16T06:16:37.526Z,20.27
2022-12-16T06:19:25.507Z,21.10
2022-12-16T06:22:12.010Z,20.47
2022-12-16T06:24:58.337Z,20.73
2022-12-16T06:27:44.770Z,21.77
2022-12-16T06:30:31.585Z,20.50
2022-12-16T06:33:33.159Z,21.57
2022-12-16T06:36:21.205Z,21.60
2022-12-16T06:39:07.797Z,20.67
2022-12-16T06:41:54.177Z,22.00
2022-12-16T06:44:40.790Z,21.37
2022-12-16T06:47:26.989Z,20.90
2022-12-16T06:50:13.474Z,21.53
2022-12-16T06:53:02.129Z,20.97
2022-12-16T06:55:48.968Z,24.23
2022-12-16T06:58:35.585Z,26.67
2022-12-16T07:01:22.885Z,24.03
2022-12-16T07:04:09.249Z,22.90
2022-12-16T07:06:55.641Z,23.40
2022-12-16T07:09:43.550Z,21.63
2022-12-16T07:12:38.456Z,22.23
2022-12-16T07:15:27.548Z,21.30
2022-12-16T07:18:14.656Z,22.00
2022-12-16T07:21:02.868Z,21.73
2022-12-16T07:23:54.684Z,21.03
2022-12-16T07:26:52.412Z,21.20
2022-12-16T07:29:39.502Z,21.67
2022-12-16T07:32:27.854Z,20.67
2022-12-16T07:35:14.793Z,22.07
2022-12-16T07:38:01.940Z,21.97
2022-12-16T07:40:48.704Z,22.87
2022-12-16T07:43:37.630Z,22.67
2022-12-16T07:46:24.854Z,22.50
2022-12-16T07:49:11.912Z,22.80
2022-12-16T07:51:59.069Z,23.93
2022-12-16T07:54:47.230Z,24.77
2022-12-16T07:57:34.484Z,23.80
2022-12-16T08:00:23.723Z,25.40
2022-12-16T08:03:12.831Z,24.60
2022-12-16T08:05:59.779Z,23.43
2022-12-16T08:08:46.657Z,23.83
2022-12-16T08:11:33.516Z,23.93
2022-12-16T08:14:20.477Z,24.57
2022-12-16T08:17:08.567Z,23.43
2022-12-16T08:19:55.354Z,23.97
2022-12-16T08:22:42.560Z,25.40
2022-12-16T08:25:29.638Z,25.40
2022-12-16T08:28:17.741Z,26.03
2022-12-16T08:31:08.271Z,25.40
2022-12-16T08:33:59.058Z,24.93
2022-12-16T08:36:46.369Z,26.13
2022-12-16T08:39:34.454Z,26.53
2022-12-16T08:42:22.580Z,24.77
2022-12-16T08:45:09.197Z,26.57
2022-12-16T08:47:56.516Z,24.87
2022-12-16T08:50:45.999Z,23.67
2022-12-16T08:53:29.974Z,25.73
2022-12-16T08:56:17.318Z,31.00
2022-12-16T08:59:05.239Z,33.03
2022-12-16T09:01:52.378Z,28.33
2022-12-16T09:04:42.323Z,27.93
2022-12-16T09:07:31.035Z,25.23
2022-12-16T09:10:17.970Z,25.67
2022-12-16T09:13:05.193Z,24.17
2022-12-16T09:15:51.832Z,28.97
2022-12-16T09:18:39.105Z,25.37
2022-12-16T09:21:31.750Z,24.40
2022-12-16T09:24:23.248Z,24.17
2022-12-16T09:27:11.874Z,27.10
2022-12-16T09:30:04.220Z,25.43
2022-12-16T09:32:51.801Z,25.47
2022-12-16T09:35:39.567Z,26.53
2022-12-16T09:38:27.117Z,26.50
2022-12-16T09:41:15.956Z,26.90
2022-12-16T09:44:15.215Z,26.27
2022-12-16T09:47:10.015Z,26.97
2022-12-16T09:50:05.784Z,26.67
2022-12-16T09:53:03.423Z,27.50
2022-12-16T09:55:53.479Z,28.30
2022-12-16T09:58:44.887Z,27.37
2022-12-16T10:01:33.449Z,25.93
2022-12-16T10:04:20.864Z,28.00
2022-12-16T10:07:11.645Z,28.90
2022-12-16T10:10:08.574Z,29.10
2022-12-16T10:13:02.770Z,27.37
2022-12-16T10:16:03.256Z,28.40
2022-12-16T10:19:08.610Z,26.13
2022-12-16T10:22:03.765Z,27.40
2022-12-16T10:25:06.501Z,27.10
2022-12-16T10:28:00.852Z,26.47
2022-12-16T10:30:48.677Z,26.10
2022-12-16T10:33:40.159Z,26.40
2022-12-16T10:36:33.316Z,27.20
2022-12-16T10:39:23.991Z,28.10
2022-12-16T10:42:12.543Z,29.43
2022-12-16T10:45:09.778Z,30.77
2022-12-16T10:47:57.217Z,32.37
2022-12-16T10:50:45.782Z,38.80
2022-12-16T10:53:35.030Z,36.27
2022-12-16T10:56:37.408Z,31.83
2022-12-16T10:59:22.468Z,32.63
2022-12-16T11:02:16.675Z,30.53
2022-12-16T11:05:05.099Z,31.43
2022-12-16T11:08:03.314Z,30.63
2022-12-16T11:10:53.085Z,32.97
2022-12-16T11:13:45.661Z,30.77
2022-12-16T11:16:44.921Z,31.60
2022-12-16T11:19:39.112Z,33.13
2022-12-16T11:22:33.406Z,31.40
2022-12-16T11:25:32.589Z,31.90
2022-12-16T11:28:23.518Z,30.97
2022-12-16T11:31:14.174Z,32.43
2022-12-16T11:34:03.135Z,39.53
2022-12-16T11:36:51.990Z,33.60
2022-12-16T11:39:41.712Z,31.03
2022-12-16T11:42:39.629Z,33.17
2022-12-16T11:45:33.384Z,32.60
2022-12-16T11:48:27.131Z,34.63
2022-12-16T11:51:17.758Z,32.13
2022-12-16T11:54:09.823Z,31.80
2022-12-16T11:57:02.365Z,32.17
2022-12-16T11:59:56.756Z,32.43
2022-12-16T12:02:49.236Z,31.20
2022-12-16T12:05:38.966Z,31.33
2022-12-16T12:08:33.232Z,30.73
2022-12-16T12:11:30.759Z,34.27
2022-12-16T12:14:29.753Z,32.13
2022-12-16T12:17:33.241Z,32.00
2022-12-16T12:20:36.833Z,32.57
2022-12-16T12:23:26.684Z,32.87
2022-12-16T12:26:22.244Z,32.80
2022-12-16T12:29:18.297Z,31.47
2022-12-16T12:32:11.035Z,31.27
2022-12-16T12:35:21.968Z,31.40
2022-12-16T12:38:21.039Z,32.37
2022-12-16T12:41:14.796Z,32.10
2022-12-16T12:44:10.971Z,30.87
2022-12-16T12:47:04.415Z,32.67
2022-12-16T12:49:59.548Z,32.23
2022-12-16T12:53:15.105Z,30.67
2022-12-16T12:56:07.352Z,32.90
2022-12-16T12:58:57.326Z,32.37
2022-12-16T13:01:50.532Z,32.27
2022-12-16T13:04:41.100Z,33.20
2022-12-16T13:07:28.644Z,33.93
2022-12-16T13:10:48.870Z,34.47
2022-12-16T13:13:51.740Z,34.77
2022-12-16T13:17:25.388Z,33.67
2022-12-16T13:20:14.872Z,32.90
2022-12-16T13:23:04.384Z,34.23
2022-12-16T13:26:00.206Z,33.87
2022-12-16T13:28:50.791Z,31.50
2022-12-16T13:31:38.330Z,33.37
2022-12-16T13:34:38.904Z,32.47
2022-12-16T13:37:35.950Z,33.37
2022-12-16T13:40:31.857Z,33.10
2022-12-16T13:43:23.664Z,31.43
2022-12-16T13:46:45.397Z,33.07
2022-12-16T13:50:02.279Z,36.30
2022-12-16T13:53:01.620Z,32.10
2022-12-16T13:55:51.603Z,33.73
2022-12-16T13:58:52.057Z,34.43
2022-12-16T14:01:46.799Z,37.27
2022-12-16T14:04:42.166Z,34.40
2022-12-16T14:07:29.168Z,32.53
2022-12-16T14:10:16.396Z,32.93
2022-12-16T14:13:12.100Z,33.33
2022-12-16T14:16:13.541Z,33.40
2022-12-16T14:19:18.534Z,34.87
2022-12-16T14:22:09.953Z,35.03
2022-12-16T14:24:58.344Z,35.73
2022-12-16T14:27:45.630Z,34.47
2022-12-16T14:30:37.638Z,34.90
2022-12-16T14:33:41.970Z,34.97
2022-12-16T14:36:41.144Z,33.53
2022-12-16T14:39:33.963Z,33.67
2022-12-16T14:42:21.631Z,34.07
2022-12-16T14:45:08.690Z,34.37
2022-12-16T14:47:59.312Z,35.27
2022-12-16T14:50:49.188Z,33.30
2022-12-16T14:53:39.314Z,33.83
2022-12-16T14:56:46.606Z,34.40
2022-12-16T14:59:34.936Z,34.37
2022-12-16T15:02:39.207Z,32.87
2022-12-16T15:05:27.370Z,34.10
2022-12-16T15:08:16.376Z,35.00
2022-12-16T15:11:03.750Z,36.13
2022-12-16T15:14:00.241Z,37.47
2022-12-16T15:16:57.015Z,37.53
2022-12-16T15:19:45.217Z,36.40
2022-12-16T15:22:34.201Z,36.93
2022-12-16T15:25:24.706Z,37.17
2022-12-16T15:28:30.425Z,36.87
2022-12-16T15:31:17.752Z,35.83
2022-12-16T15:34:01.903Z,36.53
2022-12-16T15:36:51.776Z,37.03
2022-12-16T15:39:41.235Z,40.30
2022-12-16T15:42:41.453Z,39.73
2022-12-16T15:45:37.581Z,39.17
2022-12-16T15:48:36.490Z,36.90
2022-12-16T15:51:24.285Z,36.23
2022-12-16T15:54:29.992Z,37.03
2022-12-16T15:57:17.014Z,34.37
2022-12-16T16:00:16.275Z,40.20
2022-12-16T16:03:06.913Z,37.10
2022-12-16T16:05:55.041Z,39.00
2022-12-16T16:08:42.429Z,39.90
2022-12-16T16:11:29.157Z,40.20
2022-12-16T16:14:15.956Z,39.13
2022-12-16T16:17:04.165Z,41.37
2022-12-16T16:19:51.207Z,40.10
2022-12-16T16:22:38.081Z,40.40
2022-12-16T16:25:26.577Z,41.63
2022-12-16T16:28:14.210Z,42.40
2022-12-16T16:31:01.356Z,41.40
2022-12-16T16:33:49.853Z,41.40
2022-12-16T16:36:37.068Z,40.20
2022-12-16T16:39:24.143Z,40.10
2022-12-16T16:42:11.141Z,44.53
2022-12-16T16:44:57.775Z,40.57
2022-12-16T16:47:56.325Z,41.60
2022-12-16T16:50:45.039Z,41.83
2022-12-16T16:53:37.270Z,42.70
2022-12-16T16:56:24.801Z,46.30
2022-12-16T16:59:12.054Z,39.67
2022-12-16T17:01:59.501Z,43.13
2022-12-16T17:04:46.054Z,42.53
2022-12-16T17:07:34.417Z,41.80
2022-12-16T17:10:22.927Z,43.97
2022-12-16T17:13:09.853Z,42.00
2022-12-16T17:15:57.604Z,47.03
2022-12-16T17:18:50.540Z,45.27
2022-12-16T17:21:39.341Z,43.43
2022-12-16T17:24:27.561Z,38.93
2022-12-16T17:27:14.461Z,43.90
2022-12-16T17:30:01.620Z,44.73
2022-12-16T17:32:49.278Z,42.57
2022-12-16T17:35:37.093Z,43.07
2022-12-16T17:38:24.668Z,42.03
2022-12-16T17:41:27.400Z,38.90
2022-12-16T17:44:14.755Z,39.97
2022-12-16T17:47:02.568Z,40.60
2022-12-16T17:49:49.677Z,44.00
2022-12-16T17:52:42.768Z,45.17
2022-12-16T17:55:31.123Z,46.90
2022-12-16T17:58:22.345Z,38.37
2022-12-16T18:01:09.388Z,40.07
2022-12-16T18:03:56.598Z,42.03
2022-12-16T18:06:44.316Z,43.73
2022-12-16T18:09:32.104Z,39.87
2022-12-16T18:12:17.788Z,50.13
2022-12-16T18:15:06.393Z,42.87
2022-12-16T18:17:53.234Z,42.53
2022-12-16T18:20:41.125Z,39.73
2022-12-16T18:23:28.677Z,41.67
2022-12-16T18:26:20.713Z,40.07
2022-12-16T18:29:04.503Z,43.27
2022-12-16T18:31:59.043Z,46.20
2022-12-16T18:34:47.416Z,42.57
2022-12-16T18:37:34.143Z,38.67
2022-12-16T18:40:22.053Z,42.07
2022-12-16T18:43:09.072Z,41.97
2022-12-16T18:45:56.276Z,41.17
2022-12-16T18:48:49.808Z,42.20
2022-12-16T18:51:36.801Z,40.87
2022-12-16T18:54:23.667Z,37.90
2022-12-16T18:57:11.480Z,41.07
2022-12-16T18:59:57.938Z,41.33
2022-12-16T19:02:45.230Z,41.93
2022-12-16T19:05:35.848Z,39.77
2022-12-16T19:08:23.138Z,43.27
2022-12-16T19:14:38.878Z,40.60
2022-12-16T19:17:25.275Z,44.30
2022-12-16T19:20:11.717Z,38.13
2022-12-16T19:22:58.555Z,38.93
2022-12-16T19:25:45.127Z,39.43
2022-12-16T19:28:37.796Z,40.63
2022-12-16T19:31:29.508Z,41.23
2022-12-16T19:34:17.599Z,40.33
2022-12-16T19:37:04.105Z,37.33
2022-12-16T19:39:51.896Z,43.57
2022-12-16T19:42:38.370Z,43.00
2022-12-16T19:45:26.469Z,42.30
2022-12-16T19:48:19.611Z,39.67
2022-12-16T19:51:06.461Z,41.97
2022-12-16T19:53:53.373Z,40.00
2022-12-16T19:56:43.913Z,40.13
2022-12-16T19:59:30.264Z,42.50
2022-12-16T20:02:15.990Z,38.57
2022-12-16T20:05:02.758Z,40.87
2022-12-16T20:07:48.437Z,40.63
2022-12-16T20:10:36.122Z,39.40
2022-12-16T20:16:35.081Z,42.13
2022-12-16T20:19:21.869Z,40.73
2022-12-16T20:22:11.843Z,41.70
2022-12-16T20:24:59.757Z,41.80
2022-12-16T20:27:46.160Z,39.43
2022-12-16T20:30:34.819Z,40.90
2022-12-16T20:33:22.605Z,39.50
2022-12-16T20:36:16.248Z,39.00
2022-12-16T20:39:02.908Z,39.17
2022-12-16T20:41:49.745Z,38.83
2022-12-16T20:44:36.311Z,41.47
2022-12-16T20:47:24.130Z,39.90
2022-12-16T20:50:10.600Z,39.00
2022-12-16T20:52:57.352Z,39.03
2022-12-16T20:55:43.822Z,42.17
2022-12-16T20:58:35.449Z,40.33
2022-12-16T21:01:22.503Z,43.23
2022-12-16T21:04:11.742Z,38.67
2022-12-16T21:06:58.809Z,41.63
2022-12-16T21:09:45.442Z,41.80
2022-12-16T21:12:31.958Z,42.10
2022-12-16T21:14:42.227Z,38.60
2022-12-16T21:15:18.967Z,42.17
2022-12-16T21:18:05.627Z,41.40
2022-12-16T21:24:06.362Z,42.40
2022-12-16T21:26:52.807Z,40.57
2022-12-16T21:29:42.654Z,40.93
2022-12-16T21:32:29.267Z,42.73
2022-12-16T21:35:16.421Z,43.57
2022-12-16T21:38:04.126Z,39.47
2022-12-16T21:40:50.504Z,44.37
2022-12-16T21:43:51.401Z,40.80
2022-12-16T21:46:38.055Z,43.13
2022-12-16T21:49:24.626Z,44.83
2022-12-16T21:52:13.497Z,43.23
2022-12-16T21:55:01.428Z,43.10
2022-12-16T21:57:47.941Z,47.13
2022-12-16T22:00:34.976Z,45.00
2022-12-16T22:03:21.708Z,50.43
2022-12-16T22:06:08.138Z,44.13
2022-12-16T22:08:56.332Z,45.90
2022-12-16T22:11:44.421Z,43.47
2022-12-16T22:14:30.687Z,43.73
2022-12-16T22:17:17.523Z,44.77
2022-12-16T22:20:04.053Z,44.37
2022-12-16T22:22:50.460Z,44.13
2022-12-16T22:25:37.263Z,44.43
2022-12-16T22:28:26.877Z,42.40
2022-12-16T22:31:16.116Z,41.33
2022-12-16T22:34:03.011Z,44.77
2022-12-16T22:36:49.378Z,41.33
2022-12-16T22:39:40.027Z,43.97
2022-12-16T22:42:29.347Z,45.87
2022-12-16T22:45:17.120Z,45.33
2022-12-16T22:48:06.494Z,43.37
2022-12-16T22:50:52.867Z,46.63
2022-12-16T22:53:43.496Z,44.70
2022-12-16T22:56:30.321Z,38.87
2022-12-16T22:59:16.743Z,41.87
2022-12-16T23:02:04.852Z,45.00
2022-12-16T23:04:51.446Z,44.63
2022-12-16T23:07:39.272Z,46.40
2022-12-16T23:10:27.575Z,42.57
2022-12-16T23:13:14.146Z,44.97
2022-12-16T23:16:01.126Z,43.80
2022-12-16T23:19:00.858Z,40.93
2022-12-16T23:21:47.644Z,43.37
2022-12-16T23:24:33.771Z,43.63
2022-12-16T23:27:28.532Z,39.93
2022-12-16T23:30:14.933Z,45.27
2022-12-16T23:33:01.444Z,43.30
2022-12-16T23:35:49.693Z,43.13
2022-12-16T23:38:35.872Z,42.83
2022-12-16T23:41:23.250Z,43.87
2022-12-16T23:44:09.954Z,40.23
2022-12-16T23:46:56.776Z,45.40
2022-12-16T23:49:43.144Z,44.60
2022-12-16T23:52:30.119Z,42.50
2022-12-16T23:55:19.101Z,39.77
2022-12-16T23:58:05.380Z,39.20
